Time;durP1;ratioP1;P1;durP2;ratioP2;P2;SDS_P1;SDS_P2;PMS_P1;PMS_P2;Temp;Humidity;BMP_temperature;BMP_pressure;BME280_temperature;BME280_humidity;BME280_pressure;Samples;Min_cycle;Max_cycle;Signal;HPM_P1;HPM_P2
2023/03/07 00:02:31;;;;;;;8.82;4.25;;;;;;;9.83;50.07;100010.00;4965908;28;20061;-78
2023/03/07 00:05:06;;;;;;;7.63;4.70;;;;;;;10.57;49.39;100143.56;4979533;28;20522;-79
2023/03/07 00:07:36;;;;;;;8.05;5.03;;;;;;;10.48;50.65;100132.88;4983835;28;20104;-79
2023/03/07 00:10:08;;;;;;;10.60;5.35;;;;;;;10.56;49.34;100139.22;4996260;28;20274;-80
2023/03/07 00:12:37;;;;;;;11.77;5.15;;;;;;;10.36;49.67;100128.69;5005370;28;20049;-80
2023/03/07 00:15:05;;;;;;;5.55;4.40;;;;;;;10.21;49.83;100098.31;5004069;28;20049;-80
2023/03/07 00:17:34;;;;;;;9.00;4.35;;;;;;;9.94;49.01;100060.16;5004458;28;20130;-79
2023/03/07 00:20:05;;;;;;;9.48;4.53;;;;;;;10.17;48.95;100102.22;5004864;28;20514;-79
2023/03/07 00:22:35;;;;;;;10.05;5.30;;;;;;;10.05;49.59;100083.84;4996547;28;20496;-80
2023/03/07 00:25:07;;;;;;;8.95;4.75;;;;;;;10.05;49.12;100088.34;4986279;28;20579;-80
2023/03/07 00:27:46;;;;;;;5.68;3.95;;;;;;;10.26;50.01;100127.88;4984141;28;20042;-80
2023/03/07 00:30:20;;;;;;;11.80;5.18;;;;;;;10.23;50.40;100129.00;4983466;28;20306;-79
2023/03/07 00:32:47;;;;;;;12.07;5.30;;;;;;;10.20;50.29;100139.09;4978779;28;20308;-81
2023/03/07 00:35:16;;;;;;;7.88;4.50;;;;;;;10.15;50.24;100144.00;4982816;28;20411;-80
2023/03/07 00:37:47;;;;;;;6.90;4.53;;;;;;;9.96;50.07;100121.03;4981311;28;20050;-81
2023/03/07 00:40:26;;;;;;;10.35;5.15;;;;;;;10.07;49.68;100139.38;4999621;28;20123;-80
2023/03/07 00:42:52;;;;;;;14.55;5.40;;;;;;;9.82;51.01;100101.91;5004674;28;20045;-80
2023/03/07 00:45:19;;;;;;;9.70;5.20;;;;;;;9.97;50.30;100118.19;4994346;28;20045;-80
2023/03/07 00:47:46;;;;;;;13.10;5.40;;;;;;;9.97;49.98;100118.19;5005806;28;20041;-82
2023/03/07 00:50:14;;;;;;;10.30;5.25;;;;;;;10.13;50.43;100135.34;5005042;28;20049;-82
2023/03/07 00:52:41;;;;;;;8.35;5.22;;;;;;;9.93;50.83;100100.94;5006702;28;20046;-79
2023/03/07 00:55:09;;;;;;;9.95;4.90;;;;;;;10.15;51.11;100128.09;4991494;28;20065;-81
2023/03/07 00:57:36;;;;;;;15.00;5.13;;;;;;;9.91;50.68;100089.63;5007350;28;20080;-79
2023/03/07 01:00:10;;;;;;;10.10;5.53;;;;;;;10.14;50.90;100129.03;5016904;28;20049;-79
2023/03/07 01:02:47;;;;;;;13.90;5.88;;;;;;;10.06;51.01;100125.31;5008094;28;20157;-79
2023/03/07 01:05:14;;;;;;;10.57;5.55;;;;;;;9.93;51.07;100103.59;5014093;28;20176;-77
2023/03/07 01:07:50;;;;;;;10.18;5.43;;;;;;;10.04;51.17;100121.94;5018723;28;20060;-81
2023/03/07 01:10:17;;;;;;;11.68;5.60;;;;;;;9.99;51.59;100124.19;5005084;28;20463;-78
2023/03/07 01:12:44;;;;;;;8.35;5.45;;;;;;;9.89;52.33;100109.31;5028632;28;20088;-79
2023/03/07 01:15:21;;;;;;;14.52;5.63;;;;;;;9.82;52.04;100098.44;5004363;28;20053;-79
2023/03/07 01:18:02;;;;;;;10.82;4.82;;;;;;;9.72;51.79;100071.13;5008681;28;20514;-79
2023/03/07 01:20:33;;;;;;;9.05;5.00;;;;;;;9.82;52.01;100093.13;5011032;28;20056;-79
2023/03/07 01:23:00;;;;;;;8.68;5.68;;;;;;;9.81;52.24;100086.19;5005846;28;20172;-79
2023/03/07 01:25:38;;;;;;;11.23;4.95;;;;;;;9.89;52.64;100096.88;4985673;28;20261;-80
2023/03/07 01:28:13;;;;;;;11.52;5.07;;;;;;;9.79;51.65;100066.94;4987611;28;20097;-81
2023/03/07 01:30:40;;;;;;;10.25;5.57;;;;;;;8.47;52.15;99846.16;4992398;28;20046;-80
2023/03/07 01:33:13;;;;;;;8.90;4.88;;;;;;;9.88;51.93;100084.63;4995098;28;20076;-78
2023/03/07 01:35:46;;;;;;;17.77;5.93;;;;;;;9.76;52.09;100077.81;4996589;28;20432;-80
2023/03/07 01:38:15;;;;;;;11.45;5.53;;;;;;;9.84;52.14;100083.22;4992355;28;20046;-81
2023/03/07 01:40:42;;;;;;;8.07;4.85;;;;;;;9.51;51.89;100021.78;4996838;28;20050;-79
2023/03/07 01:43:22;;;;;;;7.05;5.43;;;;;;;9.94;50.98;100091.97;4992591;28;20050;-79
2023/03/07 01:45:48;;;;;;;8.90;4.85;;;;;;;9.91;52.58;100086.97;4993171;28;20137;-80
2023/03/07 01:48:15;;;;;;;7.32;5.32;;;;;;;10.01;53.37;100093.06;4994564;28;20764;-78
2023/03/07 01:50:43;;;;;;;14.57;5.35;;;;;;;9.91;52.02;100078.19;4983838;28;20476;-80
2023/03/07 01:53:20;;;;;;;9.00;5.15;;;;;;;10.02;51.52;100105.38;4988495;28;20060;-80
2023/03/07 01:55:56;;;;;;;13.38;5.32;;;;;;;9.61;52.06;100038.53;5002384;28;20049;-79
2023/03/07 01:58:26;;;;;;;9.98;4.68;;;;;;;9.79;51.91;100066.94;5015461;28;20057;-77
2023/03/07 02:00:55;;;;;;;;;;;;;;;9.87;53.00;100090.06;5011352;28;20400;-78
2023/03/07 02:03:54;;;;;;;7.90;5.00;;;;;;;9.54;51.75;100042.72;4979186;28;19937;-80
2023/03/07 02:06:21;;;;;;;8.77;4.93;;;;;;;9.80;51.87;100077.38;4944260;28;20294;-80
2023/03/07 02:08:55;;;;;;;8.10;4.65;;;;;;;9.71;52.76;100064.13;4952290;28;20047;-79
2023/03/07 02:11:30;;;;;;;12.32;5.25;;;;;;;9.80;52.34;100071.25;4952120;28;20345;-77
2023/03/07 02:14:03;;;;;;;8.73;4.85;;;;;;;9.61;52.50;100054.44;4953172;28;20438;-79
2023/03/07 02:16:40;;;;;;;8.82;4.60;;;;;;;9.69;52.61;100069.59;4949116;28;20200;-78
2023/03/07 02:19:39;;;;;;;10.65;5.50;;;;;;;9.74;52.79;100079.78;4943601;28;20048;-78
2023/03/07 02:22:20;;;;;;;6.63;5.07;;;;;;;9.73;53.31;100076.28;4926990;28;21016;-79
2023/03/07 02:25:10;;;;;;;8.30;5.07;;;;;;;9.61;53.27;100074.78;4943013;28;20153;-80
2023/03/07 02:27:41;;;;;;;8.88;5.10;;;;;;;9.35;52.83;100022.41;4936656;28;20085;-79
2023/03/07 02:30:14;;;;;;;9.18;4.68;;;;;;;9.51;53.76;100074.78;4944999;28;20555;-78
2023/03/07 02:32:47;;;;;;;15.95;6.07;;;;;;;9.25;53.28;100015.44;4931549;28;20051;-80
2023/03/07 02:35:18;;;;;;;11.32;5.10;;;;;;;9.44;53.48;100064.91;4945346;28;20078;-79
2023/03/07 02:37:48;;;;;;;9.73;5.00;;;;;;;9.56;53.11;100075.22;4949306;28;20477;-81
2023/03/07 02:40:23;;;;;;;8.07;5.57;;;;;;;9.46;52.68;100060.31;4970424;28;20046;-78
2023/03/07 02:43:00;;;;;;;7.35;4.60;;;;;;;9.44;52.68;100041.06;4952153;28;20093;-79
2023/03/07 02:45:27;;;;;;;10.85;5.60;;;;;;;9.42;52.38;100046.53;4948748;28;20417;-79
2023/03/07 02:47:54;;;;;;;11.93;5.00;;;;;;;9.72;54.49;100071.97;4960842;28;20042;-80
2023/03/07 02:50:20;;;;;;;7.20;4.38;;;;;;;9.45;52.19;100021.56;4967510;28;20724;-79
2023/03/07 02:52:51;;;;;;;14.05;4.85;;;;;;;9.65;51.71;100043.53;4966057;28;20046;-77
2023/03/07 02:55:26;;;;;;;10.02;4.82;;;;;;;9.83;51.57;100077.09;4975237;28;20046;-79
2023/03/07 02:58:00;;;;;;;6.40;4.20;;;;;;;9.13;51.54;99975.91;4991296;28;20050;-79
2023/03/07 03:00:28;;;;;;;;;;;;;;;9.73;51.85;100073.63;4961962;28;20050;-78
2023/03/07 03:02:54;;;;;;;10.82;5.45;;;;;;;9.68;51.96;100067.09;4982558;28;19922;-80
2023/03/07 03:05:24;;;;;;;9.35;4.93;;;;;;;9.66;51.67;100071.69;4987744;28;20054;-77
2023/03/07 03:07:51;;;;;;;12.20;4.55;;;;;;;9.39;52.01;100033.53;4985588;28;20847;-80
2023/03/07 03:10:18;;;;;;;7.90;4.95;;;;;;;9.61;51.75;100049.13;4988448;28;20068;-79
2023/03/07 03:12:45;;;;;;;8.80;4.63;;;;;;;9.72;51.55;100052.56;4981719;28;20149;-80
2023/03/07 03:15:12;;;;;;;8.05;4.78;;;;;;;9.78;51.39;100070.53;4992681;28;20046;-80
2023/03/07 03:17:45;;;;;;;7.15;4.30;;;;;;;9.62;51.17;100050.78;4981894;28;20152;-79
2023/03/07 03:20:18;;;;;;;8.35;4.70;;;;;;;9.74;50.36;100074.47;4981620;28;20428;-79
2023/03/07 03:22:53;;;;;;;9.07;4.93;;;;;;;9.83;52.32;100063.00;4990671;28;20304;-77
2023/03/07 03:25:22;;;;;;;10.57;4.90;;;;;;;9.87;50.29;100068.84;4986429;28;20307;-79
2023/03/07 03:27:49;;;;;;;9.02;4.38;;;;;;;9.70;49.81;100030.69;4989822;28;20085;-79
2023/03/07 03:30:16;;;;;;;10.88;5.53;;;;;;;9.97;49.30;100065.16;4993191;28;20046;-78
2023/03/07 03:32:52;;;;;;;8.18;4.80;;;;;;;10.02;50.07;100054.13;4989634;28;20140;-80
2023/03/07 03:35:21;;;;;;;7.90;4.35;;;;;;;9.73;49.85;99995.91;4990532;28;20169;-80
2023/03/07 03:37:48;;;;;;;11.65;5.03;;;;;;;9.69;49.84;99997.22;4986457;28;20222;-80
2023/03/07 03:40:16;;;;;;;14.13;5.07;;;;;;;9.97;50.08;100037.81;4987269;28;20135;-80
2023/03/07 03:42:43;;;;;;;12.48;4.97;;;;;;;10.05;48.82;100048.56;4990285;28;20140;-82
2023/03/07 03:45:13;;;;;;;8.32;5.40;;;;;;;9.64;48.59;99981.75;4995134;28;20093;-79
2023/03/07 03:47:40;;;;;;;10.85;4.47;;;;;;;9.80;48.86;100026.16;4988144;28;20042;-80
2023/03/07 03:50:10;;;;;;;8.13;4.88;;;;;;;9.62;49.67;99997.78;5001683;28;20246;-77
2023/03/07 03:52:39;;;;;;;8.65;5.40;;;;;;;9.70;49.41;100023.56;4999885;28;20448;-81
2023/03/07 03:55:06;;;;;;;9.02;5.00;;;;;;;9.74;50.37;100040.03;4986267;28;20813;-80
2023/03/07 03:57:33;;;;;;;8.70;4.70;;;;;;;9.73;50.84;100051.59;5007079;28;20052;-77
2023/03/07 03:59:59;;;;;;;11.77;6.18;;;;;;;9.64;50.04;100045.34;5011215;28;20049;-80
2023/03/07 04:02:29;;;;;;;10.60;6.20;;;;;;;9.69;51.86;100034.31;4996708;28;20408;-81
2023/03/07 04:04:56;;;;;;;9.38;5.38;;;;;;;9.75;51.11;100039.84;4962644;28;20467;-79
2023/03/07 04:07:30;;;;;;;8.02;4.00;;;;;;;9.60;52.01;100007.69;4970643;28;20081;-80
2023/03/07 04:10:00;;;;;;;9.70;5.47;;;;;;;9.71;51.50;100027.03;4968147;28;20057;-79
2023/03/07 04:12:34;;;;;;;12.38;4.70;;;;;;;9.75;51.71;100031.91;4967266;28;20308;-80
2023/03/07 04:15:01;;;;;;;9.13;5.07;;;;;;;9.84;53.21;100035.50;4966108;28;20053;-80
2023/03/07 04:17:33;;;;;;;10.15;6.22;;;;;;;9.89;52.63;100025.31;4987782;28;20056;-80
2023/03/07 04:20:03;;;;;;;17.75;6.40;;;;;;;10.12;52.93;100030.22;4966687;28;20050;-81
2023/03/07 04:22:30;;;;;;;13.07;4.93;;;;;;;10.28;52.88;100025.13;4972487;28;20046;-80
2023/03/07 04:24:56;;;;;;;13.60;6.82;;;;;;;10.30;53.05;100012.56;4972158;28;20092;-80
2023/03/07 04:27:29;;;;;;;12.05;6.43;;;;;;;10.40;52.75;100034.56;4975588;28;20053;-78
2023/03/07 04:29:56;;;;;;;10.60;6.25;;;;;;;10.25;53.04;100015.63;4971604;28;20252;-77
2023/03/07 04:32:26;;;;;;;11.73;6.18;;;;;;;10.30;52.74;100038.25;4980052;28;20053;-80
2023/03/07 04:34:53;;;;;;;6.65;5.35;;;;;;;10.27;54.89;100028.75;4993889;28;20422;-78
2023/03/07 04:37:19;;;;;;;16.05;7.00;;;;;;;10.32;53.77;100029.19;4988679;28;20501;-78
2023/03/07 04:39:46;;;;;;;17.27;6.90;;;;;;;10.38;54.14;100025.09;4996215;28;20084;-80
2023/03/07 04:42:15;;;;;;;9.70;6.45;;;;;;;10.37;54.58;100015.47;4994312;28;20487;-79
2023/03/07 04:44:42;;;;;;;16.33;6.95;;;;;;;10.61;54.47;100009.56;4989264;28;20416;-79
2023/03/07 04:47:12;;;;;;;13.65;7.38;;;;;;;10.41;53.91;99999.09;4990508;28;20050;-79
2023/03/07 04:49:38;;;;;;;11.93;7.20;;;;;;;10.37;54.37;100010.97;5011491;28;20081;-78
2023/03/07 04:52:08;;;;;;;14.00;7.35;;;;;;;10.19;54.30;100005.59;5008448;28;20049;-81
2023/03/07 04:54:35;;;;;;;17.70;6.82;;;;;;;10.21;55.09;100013.41;4987705;28;20132;-80
2023/03/07 04:57:13;;;;;;;17.65;6.63;;;;;;;10.35;55.81;100036.81;5001570;28;20211;-79
2023/03/07 04:59:40;;;;;;;18.42;7.15;;;;;;;10.24;55.07;100034.34;5010557;28;20060;-78
2023/03/07 05:02:12;;;;;;;16.52;8.05;;;;;;;10.25;56.11;100036.03;4993755;28;20057;-78
2023/03/07 05:04:39;;;;;;;13.27;7.32;;;;;;;10.10;55.89;100003.00;4962456;28;20083;-79
2023/03/07 05:07:05;;;;;;;16.13;7.25;;;;;;;10.39;55.76;100042.66;4947536;28;20251;-78
2023/03/07 05:09:32;;;;;;;16.02;7.07;;;;;;;9.90;55.33;99963.31;4950547;28;20058;-78
2023/03/07 05:11:58;;;;;;;16.48;7.90;;;;;;;9.81;55.09;99927.13;4963679;28;20480;-76
2023/03/07 05:14:28;;;;;;;17.02;7.75;;;;;;;10.29;55.56;100018.84;4949317;28;20054;-80
2023/03/07 05:16:55;;;;;;;10.88;6.38;;;;;;;9.97;55.68;99972.38;4942476;28;20055;-79
2023/03/07 05:19:25;;;;;;;14.48;6.88;;;;;;;10.24;56.12;100013.13;4943334;28;20322;-82
2023/03/07 05:22:03;;;;;;;16.33;7.75;;;;;;;10.28;56.01;100009.22;4937731;28;20116;-80
2023/03/07 05:24:33;;;;;;;16.65;6.90;;;;;;;10.41;55.58;100036.25;4945886;28;20389;-78
2023/03/07 05:27:02;;;;;;;14.98;8.35;;;;;;;10.50;55.56;100045.13;4938142;28;20297;-80
2023/03/07 05:29:31;;;;;;;11.57;7.25;;;;;;;10.51;55.84;100037.97;4967022;28;20069;-81
2023/03/07 05:32:06;;;;;;;20.33;8.13;;;;;;;10.44;55.34;100033.28;4942315;28;20047;-80
2023/03/07 05:34:39;;;;;;;16.33;7.57;;;;;;;10.32;56.07;100026.53;4958828;28;20567;-80
2023/03/07 05:37:13;;;;;;;13.00;7.03;;;;;;;10.21;54.89;99987.72;4963799;28;20046;-77
2023/03/07 05:40:01;;;;;;;16.83;7.45;;;;;;;10.62;55.82;100049.22;4956983;28;20054;-79
2023/03/07 05:42:30;;;;;;;16.02;7.35;;;;;;;10.66;55.40;100039.16;4953103;28;20050;-79
2023/03/07 05:45:04;;;;;;;11.65;7.18;;;;;;;10.55;55.19;100004.84;4960860;28;20104;-77
2023/03/07 05:47:42;;;;;;;12.98;7.00;;;;;;;10.45;55.16;99981.03;4953429;28;20270;-77
2023/03/07 05:50:12;;;;;;;18.02;8.30;;;;;;;9.29;55.24;99804.94;4958108;28;20093;-81
2023/03/07 05:52:46;;;;;;;17.48;8.05;;;;;;;10.59;54.93;99987.66;4947433;28;20050;-81
2023/03/07 05:55:22;;;;;;;13.43;7.57;;;;;;;10.89;54.94;100050.97;4964156;28;20058;-81
2023/03/07 05:57:55;;;;;;;12.60;6.82;;;;;;;10.71;56.31;99977.66;4952146;28;20113;-82
2023/03/07 06:00:24;;;;;;;14.00;7.22;;;;;;;11.12;55.39;100045.22;4953413;28;20524;-82
2023/03/07 06:02:51;;;;;;;18.05;9.52;;;;;;;10.91;54.85;100025.09;4973536;28;20058;-78
2023/03/07 06:05:18;;;;;;;14.15;7.22;;;;;;;11.20;55.47;100047.09;4984162;28;20065;-80
2023/03/07 06:07:49;;;;;;;10.95;7.10;;;;;;;11.08;55.41;100049.16;4979139;28;20522;-81
2023/03/07 06:10:20;;;;;;;13.88;6.47;;;;;;;11.16;55.35;100057.19;5005774;28;20097;-81
2023/03/07 06:12:50;;;;;;;15.15;7.45;;;;;;;11.19;55.36;100050.72;5002453;28;20037;-81
2023/03/07 06:15:22;;;;;;;15.23;6.90;;;;;;;11.07;55.45;100036.88;4981662;28;20061;-80
2023/03/07 06:17:53;;;;;;;15.43;7.85;;;;;;;11.03;55.25;100046.13;4989065;28;20400;-80
2023/03/07 06:20:20;;;;;;;13.70;6.78;;;;;;;11.18;55.19;100054.38;4981090;28;20293;-78
2023/03/07 06:22:47;;;;;;;16.23;6.53;;;;;;;11.36;55.61;100070.28;5000250;28;20207;-80
2023/03/07 06:25:20;;;;;;;11.60;6.20;;;;;;;10.58;55.84;99944.34;5001715;28;20414;-82
2023/03/07 06:27:48;;;;;;;14.52;7.03;;;;;;;11.42;54.59;100070.50;4988766;28;20416;-80
2023/03/07 06:30:17;;;;;;;12.75;6.53;;;;;;;11.29;55.30;100024.94;4982124;28;20050;-82
2023/03/07 06:32:47;;;;;;;13.50;7.60;;;;;;;11.63;55.43;100069.34;5001495;28;20099;-79
2023/03/07 06:35:14;;;;;;;12.88;6.35;;;;;;;11.74;55.82;100067.22;4977267;28;20104;-78
2023/03/07 06:37:41;;;;;;;14.38;6.63;;;;;;;11.77;55.31;100056.31;4979993;28;20049;-78
2023/03/07 06:40:09;;;;;;;14.55;6.57;;;;;;;11.91;54.56;100072.69;4983281;28;20433;-78
2023/03/07 06:42:37;;;;;;;17.17;6.90;;;;;;;11.84;53.94;100045.03;4983819;28;20108;-79
2023/03/07 06:45:04;;;;;;;12.77;7.05;;;;;;;11.93;53.45;100049.44;4987074;28;20269;-79
2023/03/07 06:47:31;;;;;;;18.30;7.13;;;;;;;11.65;53.97;99996.41;4999021;28;20115;-79
2023/03/07 06:50:01;;;;;;;17.17;6.88;;;;;;;11.42;54.18;99974.00;4999832;28;20042;-79
2023/03/07 06:52:33;;;;;;;16.30;6.97;;;;;;;12.14;53.92;100073.81;4982962;28;20097;-80
2023/03/07 06:55:00;;;;;;;22.10;7.00;;;;;;;12.08;54.33;100069.13;4979833;28;20400;-79
2023/03/07 06:57:29;;;;;;;12.07;6.93;;;;;;;11.77;54.37;100029.72;4989651;28;20088;-78
2023/03/07 07:00:00;;;;;;;16.25;6.80;;;;;;;11.93;54.61;100047.59;4998017;28;20046;-78
2023/03/07 07:02:33;;;;;;;10.70;6.43;;;;;;;11.81;54.29;100024.06;4991188;28;20054;-79
2023/03/07 07:05:01;;;;;;;19.85;6.78;;;;;;;12.13;54.58;100045.53;4977333;28;20042;-79
2023/03/07 07:07:29;;;;;;;11.77;6.32;;;;;;;12.47;53.59;100094.41;4976889;28;20056;-77
2023/03/07 07:09:56;;;;;;;21.17;5.95;;;;;;;12.09;53.77;100038.03;4979349;28;20042;-78
2023/03/07 07:12:22;;;;;;;12.18;6.80;;;;;;;12.34;53.49;100082.38;5002602;28;20041;-77
2023/03/07 07:14:49;;;;;;;21.88;6.97;;;;;;;12.44;53.56;100070.75;5003402;28;20064;-77
2023/03/07 07:17:15;;;;;;;12.90;7.05;;;;;;;12.42;52.93;100070.09;4987302;28;20279;-80
2023/03/07 07:19:42;;;;;;;14.75;6.90;;;;;;;12.64;53.51;100098.78;5001399;28;20404;-77
2023/03/07 07:22:16;;;;;;;19.60;6.68;;;;;;;12.44;52.69;100068.09;4976080;28;20053;-81
2023/03/07 07:24:51;;;;;;;15.13;6.22;;;;;;;12.70;53.16;100105.31;4995094;28;20570;-80
2023/03/07 07:27:18;;;;;;;14.52;6.18;;;;;;;12.68;52.52;100104.63;5009176;28;20057;-81
2023/03/07 07:29:45;;;;;;;12.10;6.50;;;;;;;12.42;53.49;100078.91;4996984;28;20050;-80
2023/03/07 07:32:14;;;;;;;14.95;6.22;;;;;;;12.71;53.44;100109.63;5002318;28;20054;-79
2023/03/07 07:34:46;;;;;;;18.13;6.28;;;;;;;12.78;53.45;100113.31;4983452;28;20138;-80
2023/03/07 07:37:24;;;;;;;12.70;5.95;;;;;;;12.64;53.50;100096.09;4981824;28;20397;-76
2023/03/07 07:39:59;;;;;;;16.83;7.13;;;;;;;12.77;52.64;100106.31;4981460;28;20057;-78
2023/03/07 07:42:26;;;;;;;26.08;7.45;;;;;;;12.16;52.54;99996.47;4978415;28;20116;-78
2023/03/07 07:45:03;;;;;;;20.00;6.88;;;;;;;12.94;52.25;100102.69;4987729;28;20339;-80
2023/03/07 07:47:32;;;;;;;11.48;6.22;;;;;;;12.73;52.05;100079.16;5003090;28;20053;-82
2023/03/07 07:49:59;;;;;;;21.35;7.00;;;;;;;12.94;52.33;100108.00;5006020;28;20045;-80
2023/03/07 07:52:26;;;;;;;14.70;7.25;;;;;;;12.69;51.77;100075.16;4991902;28;20125;-80
2023/03/07 07:54:53;;;;;;;17.90;7.30;;;;;;;12.89;51.63;100121.00;4968468;28;20236;-79
2023/03/07 07:57:22;;;;;;;17.33;6.60;;;;;;;12.90;51.94;100098.69;4995722;28;20104;-80
2023/03/07 07:59:52;;;;;;;13.45;6.22;;;;;;;13.11;52.04;100116.88;5018525;28;20049;-80
2023/03/07 08:02:20;;;;;;;15.65;6.88;;;;;;;12.95;51.26;100098.19;5003784;28;20136;-79
2023/03/07 08:04:46;;;;;;;17.08;6.88;;;;;;;13.05;51.13;100115.69;4972866;28;20221;-79
2023/03/07 08:07:13;;;;;;;10.20;6.05;;;;;;;13.17;50.71;100112.69;4940779;28;20053;-78
2023/03/07 08:09:49;;;;;;;19.65;6.80;;;;;;;13.14;50.14;100108.53;4949604;28;20309;-79
2023/03/07 08:12:30;;;;;;;14.88;6.80;;;;;;;13.15;49.52;100110.19;4937123;28;20363;-79
2023/03/07 08:15:15;;;;;;;18.20;6.63;;;;;;;13.15;49.86;100109.38;4930861;28;20419;-79
2023/03/07 08:17:51;;;;;;;12.57;7.00;;;;;;;13.20;49.30;100110.56;4945624;28;20351;-77
2023/03/07 08:20:28;;;;;;;14.88;7.05;;;;;;;13.34;49.76;100119.75;4947632;28;20089;-80
2023/03/07 08:23:14;;;;;;;12.82;6.90;;;;;;;13.16;49.32;100095.06;4941967;28;20527;-78
2023/03/07 08:26:12;;;;;;;11.82;6.43;;;;;;;13.13;49.31;100106.03;4950135;28;20358;-79
2023/03/07 08:28:44;;;;;;;12.65;6.72;;;;;;;13.11;50.05;100102.72;4950099;28;20519;-79
2023/03/07 08:31:37;;;;;;;15.27;7.18;;;;;;;13.35;49.59;100121.41;4943930;28;20141;-78
2023/03/07 08:34:15;;;;;;;18.90;7.07;;;;;;;13.25;49.74;100096.69;4944459;28;20064;-78
2023/03/07 08:36:48;;;;;;;14.88;7.05;;;;;;;13.14;49.62;100076.56;4945218;28;20555;-77
2023/03/07 08:39:30;;;;;;;16.50;6.88;;;;;;;13.25;49.29;100110.03;4946751;28;20054;-78
2023/03/07 08:42:19;;;;;;;16.75;7.00;;;;;;;13.31;48.84;100093.41;4934786;28;20069;-78
2023/03/07 08:44:55;;;;;;;17.95;7.13;;;;;;;13.46;49.60;100117.56;4948619;28;20365;-76
2023/03/07 08:47:32;;;;;;;18.40;7.97;;;;;;;13.35;49.04;100096.56;4926687;28;20328;-77
2023/03/07 08:50:12;;;;;;;15.68;7.15;;;;;;;13.30;50.08;100093.56;4970945;28;20045;-81
2023/03/07 08:53:05;;;;;;;17.35;6.70;;;;;;;13.19;49.51;100062.72;4949196;28;20734;-80
2023/03/07 08:55:48;;;;;;;14.80;7.50;;;;;;;13.74;49.09;100110.06;4939187;28;20145;-80
2023/03/07 08:58:50;;;;;;;19.02;7.10;;;;;;;13.62;49.10;100090.09;4935113;28;20125;-79
2023/03/07 09:01:47;;;;;;;;;;;;;;;13.74;48.00;100106.53;4935696;28;20325;-79
2023/03/07 09:04:39;;;;;;;21.88;7.22;;;;;;;13.82;48.82;100102.03;4935544;28;20037;-81
2023/03/07 09:07:30;;;;;;;18.08;7.38;;;;;;;13.75;47.85;100095.72;4951573;28;20054;-80
2023/03/07 09:10:21;;;;;;;15.63;7.35;;;;;;;13.87;47.91;100093.53;4939155;28;20065;-79
2023/03/07 09:13:07;;;;;;;12.60;6.72;;;;;;;13.88;48.26;100090.69;4937314;28;20123;-80
2023/03/07 09:15:59;;;;;;;16.00;6.60;;;;;;;13.69;47.97;100059.06;4933850;28;20052;-80
2023/03/07 09:18:42;;;;;;;18.88;7.00;;;;;;;14.06;47.36;100092.31;4934881;28;20053;-79
2023/03/07 09:21:16;;;;;;;12.77;6.20;;;;;;;14.12;47.53;100086.28;4933878;28;20639;-79
2023/03/07 09:23:49;;;;;;;20.17;6.63;;;;;;;14.29;48.00;100085.22;4930463;28;20134;-81
2023/03/07 09:26:34;;;;;;;14.07;6.32;;;;;;;14.35;47.35;100082.88;4927883;28;20443;-79
2023/03/07 09:29:11;;;;;;;13.43;7.00;;;;;;;14.46;46.71;100095.81;4927200;28;20054;-80
2023/03/07 09:31:46;;;;;;;11.32;5.97;;;;;;;14.72;46.46;100083.03;4928994;28;20046;-79
2023/03/07 09:34:20;;;;;;;11.57;5.90;;;;;;;14.51;47.43;100050.72;4930994;28;20241;-80
2023/03/07 09:36:51;;;;;;;15.60;6.22;;;;;;;14.11;46.70;99980.53;4950032;28;20422;-79
2023/03/07 09:39:23;;;;;;;19.63;7.20;;;;;;;14.73;46.03;100079.38;4957848;28;20639;-80
2023/03/07 09:42:23;;;;;;;16.67;6.15;;;;;;;14.78;45.50;100073.47;4921881;28;20590;-80
2023/03/07 09:45:17;;;;;;;9.88;5.65;;;;;;;15.08;44.13;100081.66;4880621;28;20493;-81
2023/03/07 09:48:06;;;;;;;15.85;5.78;;;;;;;14.84;44.58;100037.22;4889927;28;20411;-79
2023/03/07 09:50:57;;;;;;;10.75;5.95;;;;;;;15.29;44.78;100062.25;4915124;28;20579;-79
2023/03/07 09:54:03;;;;;;;13.73;5.95;;;;;;;15.37;43.41;100071.03;4911870;28;20117;-80
2023/03/07 09:56:58;;;;;;;13.15;5.78;;;;;;;15.32;44.61;100068.09;4904685;28;20240;-80
2023/03/07 09:59:45;;;;;;;12.93;6.03;;;;;;;15.19;43.29;100057.16;4920152;28;20072;-79
2023/03/07 10:02:22;;;;;;;20.70;6.40;;;;;;;15.49;42.29;100066.09;4921016;28;20222;-78
2023/03/07 10:05:22;;;;;;;12.68;5.38;;;;;;;15.15;44.98;100018.44;4908531;28;20356;-79
2023/03/07 10:07:58;;;;;;;15.00;6.13;;;;;;;15.56;45.16;100063.53;4914651;28;20756;-79
2023/03/07 10:10:38;;;;;;;16.95;5.57;;;;;;;15.40;44.07;100032.41;4918372;28;20336;-81
2023/03/07 10:13:29;;;;;;;14.73;5.60;;;;;;;15.33;44.96;100002.03;4882361;28;20458;-81
2023/03/07 10:16:21;;;;;;;10.07;5.35;;;;;;;15.62;45.41;100051.25;4910379;28;20120;-82
2023/03/07 10:19:50;;;;;;;16.98;6.13;;;;;;;15.71;42.82;100066.25;4882490;28;20313;-81
2023/03/07 10:23:08;;;;;;;11.68;5.65;;;;;;;15.70;42.79;100051.19;4844112;29;20311;-82
2023/03/07 10:25:57;;;;;;;11.52;5.88;;;;;;;15.79;42.76;100056.28;4887365;28;20483;-80
2023/03/07 10:28:36;;;;;;;11.90;5.13;;;;;;;15.83;44.65;100063.97;4883049;28;20317;-80
2023/03/07 10:31:27;;;;;;;10.80;5.55;;;;;;;15.94;44.30;100050.09;4880107;28;20187;-79
2023/03/07 10:34:29;;;;;;;14.27;5.97;;;;;;;15.66;42.23;100050.72;4890689;28;20046;-78
2023/03/07 10:37:28;;;;;;;16.80;5.82;;;;;;;15.66;41.19;100060.59;4883018;28;20292;-78
2023/03/07 10:40:03;;;;;;;14.63;6.50;;;;;;;15.75;41.29;100056.81;4889680;28;20816;-78
2023/03/07 10:42:35;;;;;;;12.80;5.80;;;;;;;15.45;41.56;99981.88;4935266;28;20132;-78
2023/03/07 10:45:14;;;;;;;16.73;5.43;;;;;;;15.38;42.27;100013.84;4880604;28;20191;-79
2023/03/07 10:48:05;;;;;;;14.90;6.88;;;;;;;15.67;43.03;100054.22;4902043;28;20415;-80
2023/03/07 10:51:21;;;;;;;9.95;5.90;;;;;;;15.27;44.32;100011.63;4921802;28;20053;-80
2023/03/07 10:54:00;;;;;;;10.52;5.00;;;;;;;15.48;44.32;100032.31;4917110;28;20050;-80
2023/03/07 10:56:31;;;;;;;14.98;6.05;;;;;;;15.47;44.05;100022.63;4930053;28;20126;-82
2023/03/07 10:59:15;;;;;;;13.55;6.78;;;;;;;15.93;43.94;100054.63;4899857;28;20150;-81
2023/03/07 11:01:53;;;;;;;12.25;4.95;;;;;;;15.53;44.21;100043.28;4936884;28;20062;-82
2023/03/07 11:04:23;;;;;;;16.17;6.25;;;;;;;15.10;44.36;99999.44;4947292;28;20053;-79
2023/03/07 11:07:03;;;;;;;12.43;5.97;;;;;;;15.48;43.74;100053.72;4944208;28;20050;-81
2023/03/07 11:10:04;;;;;;;15.75;5.88;;;;;;;15.52;44.55;100064.91;4924900;28;20490;-80
2023/03/07 11:12:51;;;;;;;13.27;5.80;;;;;;;15.12;44.42;99979.53;4922811;28;20451;-80
2023/03/07 11:15:40;;;;;;;14.43;5.65;;;;;;;15.33;45.03;99996.69;4921156;28;20065;-81
2023/03/07 11:18:44;;;;;;;10.95;5.70;;;;;;;15.82;44.33;100025.63;4936656;28;20149;-78
2023/03/07 11:21:39;;;;;;;11.00;6.25;;;;;;;15.83;43.47;100005.91;4949370;28;20759;-79
2023/03/07 11:24:29;;;;;;;11.38;5.38;;;;;;;15.95;42.97;100007.09;4947384;28;20351;-81
2023/03/07 11:26:58;;;;;;;15.40;5.68;;;;;;;15.83;44.07;99963.09;4937781;28;20042;-80
2023/03/07 11:29:34;;;;;;;9.07;5.65;;;;;;;15.82;44.58;100001.56;4957216;28;20072;-81
2023/03/07 11:32:24;;;;;;;18.02;6.45;;;;;;;15.56;42.79;99968.03;4944583;28;20049;-78
2023/03/07 11:35:28;;;;;;;19.00;7.15;;;;;;;15.50;41.98;99965.28;4959173;28;20542;-79
2023/03/07 11:38:32;;;;;;;12.90;5.40;;;;;;;15.57;43.78;99985.75;4894684;28;20057;-80
2023/03/07 11:41:36;;;;;;;10.77;5.15;;;;;;;15.22;44.49;99957.88;4918066;28;20866;-80
2023/03/07 11:44:32;;;;;;;15.25;6.78;;;;;;;15.54;42.83;100002.16;4899331;28;20632;-78
2023/03/07 11:47:34;;;;;;;15.40;6.50;;;;;;;15.45;43.61;99981.88;4890094;28;20046;-80
2023/03/07 11:50:25;;;;;;;13.80;6.07;;;;;;;15.50;43.81;99990.16;4942678;28;20046;-81
2023/03/07 11:53:23;;;;;;;;;;;;;;;15.98;45.01;99969.25;4940087;28;20054;-81
2023/03/07 11:56:21;;;;;;;10.80;5.60;;;;;;;15.48;43.98;99960.09;4962917;28;19979;-82
2023/03/07 11:59:20;;;;;;;11.98;5.47;;;;;;;15.22;44.53;99916.91;4924939;28;20315;-77
2023/03/07 12:02:38;;;;;;;18.63;6.65;;;;;;;15.25;41.90;99970.06;4930056;28;20060;-80
2023/03/07 12:05:54;;;;;;;17.63;6.57;;;;;;;15.24;42.57;99942.47;4914649;28;20081;-80